sensor_id;sensor_type;location;lat;lon;timestamp;pressure;altitude;pressure_sealevel;temperature;humidity
41202;BME280;26936;50.524;8.684;2023-08-08T00:01:42;99357.19;;;12.33;100.00
41202;BME280;26936;50.524;8.684;2023-08-08T00:04:09;99358.59;;;12.38;100.00
41202;BME280;26936;50.524;8.684;2023-08-08T00:06:35;99370.53;;;12.42;100.00
41202;BME280;26936;50.524;8.684;2023-08-08T00:09:00;99370.53;;;12.42;100.00
41202;BME280;26936;50.524;8.684;2023-08-08T00:11:25;99369.28;;;12.43;100.00
41202;BME280;26936;50.524;8.684;2023-08-08T00:13:51;99365.06;;;12.47;100.00
41202;BME280;26936;50.524;8.684;2023-08-08T00:16:16;99363.50;;;12.46;100.00
41202;BME280;26936;50.524;8.684;2023-08-08T00:18:41;99365.41;;;12.49;100.00
41202;BME280;26936;50.524;8.684;2023-08-08T00:21:06;99367.41;;;12.49;100.00
41202;BME280;26936;50.524;8.684;2023-08-08T00:23:32;99362.09;;;12.51;100.00
41202;BME280;26936;50.524;8.684;2023-08-08T00:25:57;99363.97;;;12.54;100.00
41202;BME280;26936;50.524;8.684;2023-08-08T00:28:22;99354.56;;;12.57;100.00
41202;BME280;26936;50.524;8.684;2023-08-08T00:30:48;99350.50;;;12.58;100.00
41202;BME280;26936;50.524;8.684;2023-08-08T00:33:13;99348.34;;;12.71;100.00
41202;BME280;26936;50.524;8.684;2023-08-08T00:35:38;99354.28;;;12.73;100.00
41202;BME280;26936;50.524;8.684;2023-08-08T00:38:03;99350.19;;;12.65;100.00
41202;BME280;26936;50.524;8.684;2023-08-08T00:40:29;99342.03;;;12.58;100.00
41202;BME280;26936;50.524;8.684;2023-08-08T00:42:54;99335.78;;;12.72;100.00
41202;BME280;26936;50.524;8.684;2023-08-08T00:45:19;99336.66;;;12.51;100.00
41202;BME280;26936;50.524;8.684;2023-08-08T00:47:44;99332.94;;;12.63;100.00
41202;BME280;26936;50.524;8.684;2023-08-08T00:50:10;99326.47;;;12.53;100.00
41202;BME280;26936;50.524;8.684;2023-08-08T00:52:37;99331.16;;;12.47;100.00
41202;BME280;26936;50.524;8.684;2023-08-08T00:55:03;99334.28;;;12.40;100.00
41202;BME280;26936;50.524;8.684;2023-08-08T00:57:30;99322.34;;;12.36;100.00
41202;BME280;26936;50.524;8.684;2023-08-08T00:59:55;99325.19;;;12.36;100.00
41202;BME280;26936;50.524;8.684;2023-08-08T01:02:20;99321.09;;;12.37;100.00
41202;BME280;26936;50.524;8.684;2023-08-08T01:04:46;99325.94;;;12.27;100.00
41202;BME280;26936;50.524;8.684;2023-08-08T01:09:58;99316.66;;;12.18;100.00
41202;BME280;26936;50.524;8.684;2023-08-08T01:12:30;99322.09;;;12.12;100.00
41202;BME280;26936;50.524;8.684;2023-08-08T01:14:56;99319.00;;;12.10;100.00
41202;BME280;26936;50.524;8.684;2023-08-08T01:17:22;99313.78;;;12.09;100.00
41202;BME280;26936;50.524;8.684;2023-08-08T01:19:48;99313.34;;;12.10;100.00
41202;BME280;26936;50.524;8.684;2023-08-08T01:22:23;99303.56;;;12.02;100.00
41202;BME280;26936;50.524;8.684;2023-08-08T01:24:50;99305.63;;;12.11;100.00
41202;BME280;26936;50.524;8.684;2023-08-08T01:27:17;99309.19;;;12.02;100.00
41202;BME280;26936;50.524;8.684;2023-08-08T01:29:42;99304.97;;;11.98;100.00
41202;BME280;26936;50.524;8.684;2023-08-08T01:32:07;99308.25;;;11.96;100.00
41202;BME280;26936;50.524;8.684;2023-08-08T01:34:34;99301.38;;;11.97;100.00
41202;BME280;26936;50.524;8.684;2023-08-08T01:37:19;99291.31;;;11.96;100.00
41202;BME280;26936;50.524;8.684;2023-08-08T01:39:48;99301.50;;;11.94;100.00
41202;BME280;26936;50.524;8.684;2023-08-08T01:42:15;99299.91;;;11.93;100.00
41202;BME280;26936;50.524;8.684;2023-08-08T01:44:41;99290.03;;;11.88;100.00
41202;BME280;26936;50.524;8.684;2023-08-08T01:47:08;99293.00;;;11.85;100.00
41202;BME280;26936;50.524;8.684;2023-08-08T01:49:33;99285.25;;;11.76;100.00
41202;BME280;26936;50.524;8.684;2023-08-08T01:51:58;99284.63;;;11.72;100.00
41202;BME280;26936;50.524;8.684;2023-08-08T01:54:24;99297.19;;;11.71;100.00
41202;BME280;26936;50.524;8.684;2023-08-08T01:56:49;99290.53;;;11.65;100.00
41202;BME280;26936;50.524;8.684;2023-08-08T01:59:14;99293.28;;;11.56;100.00
41202;BME280;26936;50.524;8.684;2023-08-08T02:01:40;99289.94;;;11.49;100.00
41202;BME280;26936;50.524;8.684;2023-08-08T02:04:05;99287.59;;;11.47;100.00
41202;BME280;26936;50.524;8.684;2023-08-08T02:06:30;99284.59;;;11.42;100.00
41202;BME280;26936;50.524;8.684;2023-08-08T02:08:56;99289.44;;;11.41;100.00
41202;BME280;26936;50.524;8.684;2023-08-08T02:11:21;99286.50;;;11.45;100.00
41202;BME280;26936;50.524;8.684;2023-08-08T02:13:47;99281.94;;;11.47;100.00
41202;BME280;26936;50.524;8.684;2023-08-08T02:16:12;99286.03;;;11.46;100.00
41202;BME280;26936;50.524;8.684;2023-08-08T02:18:37;99281.31;;;11.43;100.00
41202;BME280;26936;50.524;8.684;2023-08-08T02:21:06;99290.38;;;11.38;100.00
41202;BME280;26936;50.524;8.684;2023-08-08T02:23:31;99292.66;;;11.31;100.00
41202;BME280;26936;50.524;8.684;2023-08-08T02:25:56;99288.41;;;11.26;100.00
41202;BME280;26936;50.524;8.684;2023-08-08T02:28:21;99285.25;;;11.24;100.00
41202;BME280;26936;50.524;8.684;2023-08-08T02:30:47;99296.69;;;11.21;100.00
41202;BME280;26936;50.524;8.684;2023-08-08T02:33:12;99297.13;;;11.19;100.00
41202;BME280;26936;50.524;8.684;2023-08-08T02:35:37;99295.22;;;11.16;100.00
41202;BME280;26936;50.524;8.684;2023-08-08T02:38:03;99292.22;;;11.11;100.00
41202;BME280;26936;50.524;8.684;2023-08-08T02:40:28;99291.28;;;11.14;100.00
41202;BME280;26936;50.524;8.684;2023-08-08T02:42:53;99292.22;;;11.11;100.00
41202;BME280;26936;50.524;8.684;2023-08-08T02:45:18;99298.50;;;11.15;100.00
41202;BME280;26936;50.524;8.684;2023-08-08T02:47:44;99294.44;;;11.16;100.00
41202;BME280;26936;50.524;8.684;2023-08-08T02:50:09;99299.03;;;11.22;100.00
41202;BME280;26936;50.524;8.684;2023-08-08T02:52:34;99287.94;;;11.28;100.00
41202;BME280;26936;50.524;8.684;2023-08-08T02:54:59;99298.94;;;11.13;100.00
41202;BME280;26936;50.524;8.684;2023-08-08T02:57:27;99297.38;;;11.12;100.00
41202;BME280;26936;50.524;8.684;2023-08-08T02:59:52;99293.13;;;11.08;100.00
41202;BME280;26936;50.524;8.684;2023-08-08T03:02:17;99291.81;;;11.00;100.00
41202;BME280;26936;50.524;8.684;2023-08-08T03:04:42;99291.50;;;10.98;100.00
41202;BME280;26936;50.524;8.684;2023-08-08T03:07:08;99284.84;;;10.91;100.00
41202;BME280;26936;50.524;8.684;2023-08-08T03:09:33;99288.47;;;10.92;100.00
41202;BME280;26936;50.524;8.684;2023-08-08T03:11:58;99290.28;;;10.86;100.00
41202;BME280;26936;50.524;8.684;2023-08-08T03:14:24;99287.59;;;10.82;100.00
41202;BME280;26936;50.524;8.684;2023-08-08T03:16:49;99292.66;;;10.87;100.00
41202;BME280;26936;50.524;8.684;2023-08-08T03:19:14;99285.13;;;10.84;100.00
41202;BME280;26936;50.524;8.684;2023-08-08T03:21:40;99277.25;;;10.79;100.00
41202;BME280;26936;50.524;8.684;2023-08-08T03:24:05;99276.00;;;10.80;100.00
41202;BME280;26936;50.524;8.684;2023-08-08T03:26:30;99283.88;;;10.85;100.00
41202;BME280;26936;50.524;8.684;2023-08-08T03:28:55;99272.25;;;10.83;100.00
41202;BME280;26936;50.524;8.684;2023-08-08T03:31:21;99281.50;;;10.84;100.00
41202;BME280;26936;50.524;8.684;2023-08-08T03:33:46;99273.97;;;10.81;100.00
41202;BME280;26936;50.524;8.684;2023-08-08T03:36:12;99280.53;;;10.78;100.00
41202;BME280;26936;50.524;8.684;2023-08-08T03:38:38;99275.81;;;10.75;100.00
41202;BME280;26936;50.524;8.684;2023-08-08T03:41:04;99276.91;;;10.77;100.00
41202;BME280;26936;50.524;8.684;2023-08-08T03:43:29;99273.88;;;10.72;100.00
41202;BME280;26936;50.524;8.684;2023-08-08T03:45:54;99269.38;;;10.74;100.00
41202;BME280;26936;50.524;8.684;2023-08-08T03:48:20;99281.75;;;10.77;100.00
41202;BME280;26936;50.524;8.684;2023-08-08T03:50:45;99267.72;;;10.64;100.00
41202;BME280;26936;50.524;8.684;2023-08-08T03:53:11;99271.34;;;10.65;100.00
41202;BME280;26936;50.524;8.684;2023-08-08T03:55:37;99278.19;;;10.64;100.00
41202;BME280;26936;50.524;8.684;2023-08-08T03:58:02;99274.06;;;10.56;100.00
41202;BME280;26936;50.524;8.684;2023-08-08T04:00:27;99278.00;;;10.58;100.00
41202;BME280;26936;50.524;8.684;2023-08-08T04:02:53;99281.28;;;10.57;100.00
41202;BME280;26936;50.524;8.684;2023-08-08T04:05:18;99276.75;;;10.59;100.00
41202;BME280;26936;50.524;8.684;2023-08-08T04:07:44;99280.56;;;10.65;100.00
41202;BME280;26936;50.524;8.684;2023-08-08T04:10:09;99285.59;;;10.70;100.00
41202;BME280;26936;50.524;8.684;2023-08-08T04:12:34;99285.59;;;10.70;100.00
41202;BME280;26936;50.524;8.684;2023-08-08T04:15:00;99287.31;;;10.68;100.00
41202;BME280;26936;50.524;8.684;2023-08-08T04:17:25;99280.56;;;10.65;100.00
41202;BME280;26936;50.524;8.684;2023-08-08T04:19:50;99283.06;;;10.63;100.00
41202;BME280;26936;50.524;8.684;2023-08-08T04:22:16;99272.56;;;10.64;100.00
41202;BME280;26936;50.524;8.684;2023-08-08T04:24:41;99277.75;;;10.65;100.00
41202;BME280;26936;50.524;8.684;2023-08-08T04:27:07;99280.69;;;10.62;100.00
41202;BME280;26936;50.524;8.684;2023-08-08T04:29:32;99272.38;;;10.58;100.00
41202;BME280;26936;50.524;8.684;2023-08-08T04:31:57;99271.47;;;10.61;100.00
41202;BME280;26936;50.524;8.684;2023-08-08T04:34:23;99264.66;;;10.71;100.00
41202;BME280;26936;50.524;8.684;2023-08-08T04:36:48;99262.13;;;10.86;100.00
41202;BME280;26936;50.524;8.684;2023-08-08T04:39:13;99258.00;;;11.00;100.00
41202;BME280;26936;50.524;8.684;2023-08-08T04:41:38;99258.53;;;11.07;100.00
41202;BME280;26936;50.524;8.684;2023-08-08T04:44:04;99249.22;;;11.19;100.00
41202;BME280;26936;50.524;8.684;2023-08-08T04:46:29;99252.41;;;11.30;100.00
41202;BME280;26936;50.524;8.684;2023-08-08T04:48:54;99246.47;;;11.37;100.00
41202;BME280;26936;50.524;8.684;2023-08-08T04:51:19;99244.69;;;11.52;100.00
41202;BME280;26936;50.524;8.684;2023-08-08T04:53:45;99245.41;;;11.65;100.00
41202;BME280;26936;50.524;8.684;2023-08-08T04:56:10;99249.84;;;11.75;100.00
41202;BME280;26936;50.524;8.684;2023-08-08T04:58:35;99247.34;;;11.77;100.00
41202;BME280;26936;50.524;8.684;2023-08-08T05:01:00;99244.56;;;11.86;100.00
41202;BME280;26936;50.524;8.684;2023-08-08T05:03:26;99237.06;;;11.92;100.00
41202;BME280;26936;50.524;8.684;2023-08-08T05:05:51;99242.25;;;12.03;100.00
41202;BME280;26936;50.524;8.684;2023-08-08T05:08:16;99234.13;;;12.05;100.00
41202;BME280;26936;50.524;8.684;2023-08-08T05:10:42;99231.47;;;12.10;100.00
41202;BME280;26936;50.524;8.684;2023-08-08T05:13:08;99232.13;;;12.23;100.00
41202;BME280;26936;50.524;8.684;2023-08-08T05:15:34;99234.78;;;12.27;100.00
41202;BME280;26936;50.524;8.684;2023-08-08T05:17:59;99235.28;;;12.35;100.00
41202;BME280;26936;50.524;8.684;2023-08-08T05:20:24;99230.56;;;12.41;100.00
41202;BME280;26936;50.524;8.684;2023-08-08T05:22:50;99234.81;;;12.45;100.00
41202;BME280;26936;50.524;8.684;2023-08-08T05:25:15;99236.69;;;12.48;100.00
41202;BME280;26936;50.524;8.684;2023-08-08T05:27:41;99240.16;;;12.61;100.00
41202;BME280;26936;50.524;8.684;2023-08-08T05:30:06;99234.81;;;12.63;100.00
41202;BME280;26936;50.524;8.684;2023-08-08T05:32:32;99232.63;;;12.76;100.00
41202;BME280;26936;50.524;8.684;2023-08-08T05:34:57;99230.09;;;12.87;100.00
41202;BME280;26936;50.524;8.684;2023-08-08T05:37:24;99234.66;;;12.94;100.00
41202;BME280;26936;50.524;8.684;2023-08-08T05:39:49;99231.38;;;13.04;100.00
41202;BME280;26936;50.524;8.684;2023-08-08T05:42:14;99230.91;;;13.06;100.00
41202;BME280;26936;50.524;8.684;2023-08-08T05:44:40;99238.59;;;13.14;100.00
41202;BME280;26936;50.524;8.684;2023-08-08T05:47:09;99234.81;;;13.17;100.00
41202;BME280;26936;50.524;8.684;2023-08-08T05:49:35;99233.06;;;13.20;100.00
41202;BME280;26936;50.524;8.684;2023-08-08T05:52:01;99234.00;;;13.35;100.00
41202;BME280;26936;50.524;8.684;2023-08-08T05:54:26;99235.88;;;13.47;100.00
41202;BME280;26936;50.524;8.684;2023-08-08T05:56:52;99233.94;;;13.53;100.00
41202;BME280;26936;50.524;8.684;2023-08-08T05:59:18;99244.78;;;13.63;100.00
41202;BME280;26936;50.524;8.684;2023-08-08T06:01:43;99238.41;;;13.78;100.00
41202;BME280;26936;50.524;8.684;2023-08-08T06:04:09;99232.69;;;13.96;100.00
41202;BME280;26936;50.524;8.684;2023-08-08T06:06:35;99236.56;;;14.07;100.00
41202;BME280;26936;50.524;8.684;2023-08-08T06:09:00;99227.06;;;14.19;100.00
41202;BME280;26936;50.524;8.684;2023-08-08T06:11:25;99239.13;;;14.29;100.00
41202;BME280;26936;50.524;8.684;2023-08-08T06:13:51;99231.06;;;14.36;100.00
41202;BME280;26936;50.524;8.684;2023-08-08T06:16:16;99219.84;;;14.42;100.00
41202;BME280;26936;50.524;8.684;2023-08-08T06:18:43;99222.59;;;14.51;100.00
41202;BME280;26936;50.524;8.684;2023-08-08T06:21:08;99229.84;;;14.52;100.00
41202;BME280;26936;50.524;8.684;2023-08-08T06:23:34;99226.34;;;14.57;100.00
41202;BME280;26936;50.524;8.684;2023-08-08T06:25:59;99230.75;;;14.58;99.54
41202;BME280;26936;50.524;8.684;2023-08-08T06:28:24;99229.59;;;14.64;98.08
41202;BME280;26936;50.524;8.684;2023-08-08T06:30:50;99227.34;;;14.68;98.84
41202;BME280;26936;50.524;8.684;2023-08-08T06:33:15;99223.34;;;14.75;96.83
41202;BME280;26936;50.524;8.684;2023-08-08T06:35:41;99222.19;;;14.81;95.97
41202;BME280;26936;50.524;8.684;2023-08-08T06:38:07;99234.31;;;14.82;94.97
41202;BME280;26936;50.524;8.684;2023-08-08T06:40:33;99226.91;;;14.84;92.72
41202;BME280;26936;50.524;8.684;2023-08-08T06:42:59;99225.56;;;14.94;95.45
41202;BME280;26936;50.524;8.684;2023-08-08T06:45:24;99215.31;;;14.97;94.01
41202;BME280;26936;50.524;8.684;2023-08-08T06:47:49;99223.53;;;15.10;92.86
41202;BME280;26936;50.524;8.684;2023-08-08T06:50:15;99217.47;;;15.17;92.96
41202;BME280;26936;50.524;8.684;2023-08-08T06:52:40;99223.34;;;15.28;90.85
41202;BME280;26936;50.524;8.684;2023-08-08T06:55:05;99222.56;;;15.27;89.57
41202;BME280;26936;50.524;8.684;2023-08-08T06:57:33;99221.59;;;15.30;87.87
41202;BME280;26936;50.524;8.684;2023-08-08T06:59:58;99220.63;;;15.33;88.10
41202;BME280;26936;50.524;8.684;2023-08-08T07:02:24;99234.91;;;15.39;88.74
41202;BME280;26936;50.524;8.684;2023-08-08T07:04:49;99218.19;;;15.41;87.27
41202;BME280;26936;50.524;8.684;2023-08-08T07:07:15;99232.06;;;15.39;86.88
41202;BME280;26936;50.524;8.684;2023-08-08T07:09:40;99221.53;;;15.39;85.41
41202;BME280;26936;50.524;8.684;2023-08-08T07:12:07;99224.16;;;15.43;86.19
41202;BME280;26936;50.524;8.684;2023-08-08T07:14:32;99226.31;;;15.48;85.93
41202;BME280;26936;50.524;8.684;2023-08-08T07:16:57;99240.50;;;15.48;84.62
41202;BME280;26936;50.524;8.684;2023-08-08T07:19:23;99227.78;;;15.43;84.08
41202;BME280;26936;50.524;8.684;2023-08-08T07:21:49;99218.09;;;15.50;84.14
41202;BME280;26936;50.524;8.684;2023-08-08T07:24:14;99233.72;;;15.60;83.79
41202;BME280;26936;50.524;8.684;2023-08-08T07:26:39;99231.81;;;15.51;83.85
41202;BME280;26936;50.524;8.684;2023-08-08T07:29:04;99216.69;;;15.60;83.92
41202;BME280;26936;50.524;8.684;2023-08-08T07:31:31;99226.28;;;15.77;84.66
41202;BME280;26936;50.524;8.684;2023-08-08T07:33:56;99222.13;;;15.92;85.35
41202;BME280;26936;50.524;8.684;2023-08-08T07:36:22;99234.91;;;15.82;83.58
41202;BME280;26936;50.524;8.684;2023-08-08T07:38:47;99227.25;;;15.88;84.65
41202;BME280;26936;50.524;8.684;2023-08-08T07:41:12;99227.53;;;15.90;83.52
41202;BME280;26936;50.524;8.684;2023-08-08T07:43:37;99223.91;;;15.90;83.68
41202;BME280;26936;50.524;8.684;2023-08-08T07:46:03;99224.78;;;15.96;84.39
41202;BME280;26936;50.524;8.684;2023-08-08T07:48:28;99222.88;;;16.07;82.67
41202;BME280;26936;50.524;8.684;2023-08-08T07:50:53;99224.88;;;16.01;81.32
41202;BME280;26936;50.524;8.684;2023-08-08T07:53:18;99223.69;;;16.08;82.07
41202;BME280;26936;50.524;8.684;2023-08-08T07:55:44;99215.44;;;16.10;81.51
41202;BME280;26936;50.524;8.684;2023-08-08T07:58:09;99227.91;;;15.98;81.79
41202;BME280;26936;50.524;8.684;2023-08-08T08:00:34;99214.81;;;16.20;82.76
41202;BME280;26936;50.524;8.684;2023-08-08T08:03:00;99211.75;;;16.24;81.17
41202;BME280;26936;50.524;8.684;2023-08-08T08:05:25;99210.63;;;16.16;81.12
41202;BME280;26936;50.524;8.684;2023-08-08T08:07:50;99225.44;;;16.05;82.14
41202;BME280;26936;50.524;8.684;2023-08-08T08:10:16;99217.09;;;16.16;82.21
41202;BME280;26936;50.524;8.684;2023-08-08T08:12:41;99223.63;;;16.22;83.44
41202;BME280;26936;50.524;8.684;2023-08-08T08:15:08;99218.88;;;16.34;83.43
41202;BME280;26936;50.524;8.684;2023-08-08T08:17:33;99224.16;;;16.41;83.46
41202;BME280;26936;50.524;8.684;2023-08-08T08:19:59;99226.22;;;16.41;82.70
41202;BME280;26936;50.524;8.684;2023-08-08T08:22:24;99214.91;;;16.26;83.43
41202;BME280;26936;50.524;8.684;2023-08-08T08:24:49;99223.28;;;16.35;83.31
41202;BME280;26936;50.524;8.684;2023-08-08T08:27:15;99227.13;;;16.32;84.16
41202;BME280;26936;50.524;8.684;2023-08-08T08:29:41;99221.41;;;16.47;83.60
41202;BME280;26936;50.524;8.684;2023-08-08T08:32:06;99223.66;;;16.43;83.63
41202;BME280;26936;50.524;8.684;2023-08-08T08:34:31;99215.22;;;16.48;83.65
41202;BME280;26936;50.524;8.684;2023-08-08T08:36:57;99215.94;;;16.63;83.26
41202;BME280;26936;50.524;8.684;2023-08-08T08:39:22;99229.22;;;16.17;84.33
41202;BME280;26936;50.524;8.684;2023-08-08T08:41:49;99211.66;;;16.33;85.30
41202;BME280;26936;50.524;8.684;2023-08-08T08:44:21;99221.81;;;16.40;84.19
41202;BME280;26936;50.524;8.684;2023-08-08T08:46:48;99228.31;;;16.60;84.23
41202;BME280;26936;50.524;8.684;2023-08-08T08:49:16;99217.22;;;16.62;84.38
41202;BME280;26936;50.524;8.684;2023-08-08T08:51:42;99231.91;;;16.41;84.33
41202;BME280;26936;50.524;8.684;2023-08-08T08:54:09;99220.72;;;16.37;85.59
41202;BME280;26936;50.524;8.684;2023-08-08T08:56:35;99221.22;;;16.36;85.97
41202;BME280;26936;50.524;8.684;2023-08-08T08:59:01;99223.69;;;16.63;85.37
41202;BME280;26936;50.524;8.684;2023-08-08T09:01:27;99226.47;;;16.57;84.84
41202;BME280;26936;50.524;8.684;2023-08-08T09:03:53;99222.88;;;16.82;84.37
41202;BME280;26936;50.524;8.684;2023-08-08T09:06:19;99210.19;;;17.03;83.27
41202;BME280;26936;50.524;8.684;2023-08-08T09:08:45;99210.13;;;17.18;82.76
41202;BME280;26936;50.524;8.684;2023-08-08T09:11:12;99212.41;;;16.94;82.51
41202;BME280;26936;50.524;8.684;2023-08-08T09:13:38;99223.28;;;16.95;81.46
41202;BME280;26936;50.524;8.684;2023-08-08T09:16:07;99213.59;;;17.07;82.51
41202;BME280;26936;50.524;8.684;2023-08-08T09:18:37;99213.72;;;17.18;82.22
41202;BME280;26936;50.524;8.684;2023-08-08T09:21:06;99202.22;;;17.33;80.92
41202;BME280;26936;50.524;8.684;2023-08-08T09:23:31;99197.41;;;17.44;80.00
41202;BME280;26936;50.524;8.684;2023-08-08T09:25:56;99200.94;;;17.34;80.15
41202;BME280;26936;50.524;8.684;2023-08-08T09:28:22;99203.84;;;17.39;80.63
41202;BME280;26936;50.524;8.684;2023-08-08T09:30:48;99213.72;;;17.18;79.29
41202;BME280;26936;50.524;8.684;2023-08-08T09:33:13;99196.66;;;17.75;79.10
41202;BME280;26936;50.524;8.684;2023-08-08T09:35:39;99200.22;;;17.65;77.64
41202;BME280;26936;50.524;8.684;2023-08-08T09:38:04;99190.13;;;18.00;77.14
41202;BME280;26936;50.524;8.684;2023-08-08T09:40:30;99189.16;;;18.14;77.75
41202;BME280;26936;50.524;8.684;2023-08-08T09:42:56;99193.41;;;17.88;76.00
41202;BME280;26936;50.524;8.684;2023-08-08T09:45:23;99204.09;;;17.98;75.75
41202;BME280;26936;50.524;8.684;2023-08-08T09:47:52;99196.78;;;17.92;76.07
41202;BME280;26936;50.524;8.684;2023-08-08T09:50:18;99192.91;;;17.95;75.73
41202;BME280;26936;50.524;8.684;2023-08-08T09:52:45;99196.66;;;18.12;72.02
41202;BME280;26936;50.524;8.684;2023-08-08T09:55:11;99207.56;;;17.77;73.16
41202;BME280;26936;50.524;8.684;2023-08-08T09:57:39;99211.88;;;18.03;73.21
41202;BME280;26936;50.524;8.684;2023-08-08T10:00:05;99210.69;;;18.15;70.86
41202;BME280;26936;50.524;8.684;2023-08-08T10:02:35;99190.00;;;18.26;68.88
41202;BME280;26936;50.524;8.684;2023-08-08T10:05:02;99194.56;;;18.43;69.90
41202;BME280;26936;50.524;8.684;2023-08-08T10:07:29;99190.06;;;17.95;70.58
41202;BME280;26936;50.524;8.684;2023-08-08T10:09:56;99188.47;;;18.25;71.72
41202;BME280;26936;50.524;8.684;2023-08-08T10:12:22;99195.97;;;18.22;69.13
41202;BME280;26936;50.524;8.684;2023-08-08T10:14:49;99225.84;;;17.96;69.02
41202;BME280;26936;50.524;8.684;2023-08-08T10:17:15;99189.31;;;18.00;69.12
41202;BME280;26936;50.524;8.684;2023-08-08T10:19:50;99190.66;;;18.04;69.02
41202;BME280;26936;50.524;8.684;2023-08-08T10:22:21;99182.88;;;17.99;69.85
41202;BME280;26936;50.524;8.684;2023-08-08T10:24:47;99195.34;;;18.49;68.62
41202;BME280;26936;50.524;8.684;2023-08-08T10:27:27;99187.66;;;18.24;68.87
41202;BME280;26936;50.524;8.684;2023-08-08T10:29:53;99189.25;;;18.25;69.16
41202;BME280;26936;50.524;8.684;2023-08-08T10:32:24;99196.16;;;18.13;69.21
41202;BME280;26936;50.524;8.684;2023-08-08T10:34:55;99187.88;;;18.15;69.06
41202;BME280;26936;50.524;8.684;2023-08-08T10:37:20;99188.50;;;17.94;69.88
41202;BME280;26936;50.524;8.684;2023-08-08T10:39:58;99193.38;;;18.24;71.31
41202;BME280;26936;50.524;8.684;2023-08-08T10:42:26;99190.78;;;18.26;70.66
41202;BME280;26936;50.524;8.684;2023-08-08T10:44:56;99190.09;;;18.37;70.37
41202;BME280;26936;50.524;8.684;2023-08-08T10:47:25;99191.59;;;18.32;70.81
41202;BME280;26936;50.524;8.684;2023-08-08T10:49:59;99176.81;;;18.34;71.17
41202;BME280;26936;50.524;8.684;2023-08-08T10:52:28;99178.63;;;18.31;69.66
41202;BME280;26936;50.524;8.684;2023-08-08T10:54:54;99186.75;;;18.44;69.09
41202;BME280;26936;50.524;8.684;2023-08-08T10:57:24;99173.38;;;18.61;69.10
41202;BME280;26936;50.524;8.684;2023-08-08T10:59:49;99185.22;;;18.43;69.57
41202;BME280;26936;50.524;8.684;2023-08-08T11:02:16;99181.13;;;18.60;70.59
41202;BME280;26936;50.524;8.684;2023-08-08T11:04:43;99180.09;;;18.58;70.69
41202;BME280;26936;50.524;8.684;2023-08-08T11:07:08;99186.09;;;18.65;68.37
41202;BME280;26936;50.524;8.684;2023-08-08T11:09:34;99193.63;;;18.68;67.92
41202;BME280;26936;50.524;8.684;2023-08-08T11:11:59;99183.00;;;18.69;67.07
41202;BME280;26936;50.524;8.684;2023-08-08T11:14:25;99182.25;;;18.85;66.27
41202;BME280;26936;50.524;8.684;2023-08-08T11:16:51;99183.06;;;18.91;65.93
41202;BME280;26936;50.524;8.684;2023-08-08T11:19:17;99179.19;;;19.00;68.50
41202;BME280;26936;50.524;8.684;2023-08-08T11:21:45;99176.66;;;19.18;66.93
41202;BME280;26936;50.524;8.684;2023-08-08T11:24:11;99181.59;;;19.29;62.82
41202;BME280;26936;50.524;8.684;2023-08-08T11:26:39;99174.81;;;19.10;64.16
41202;BME280;26936;50.524;8.684;2023-08-08T11:29:05;99169.69;;;19.52;64.38
41202;BME280;26936;50.524;8.684;2023-08-08T11:31:31;99173.56;;;19.38;61.00
41202;BME280;26936;50.524;8.684;2023-08-08T11:33:59;99170.41;;;19.09;63.40
41202;BME280;26936;50.524;8.684;2023-08-08T11:36:25;99160.09;;;19.33;60.12
41202;BME280;26936;50.524;8.684;2023-08-08T11:38:51;99176.19;;;19.36;62.01
41202;BME280;26936;50.524;8.684;2023-08-08T11:41:20;99177.22;;;19.44;62.81
41202;BME280;26936;50.524;8.684;2023-08-08T11:43:48;99197.06;;;18.94;62.42
41202;BME280;26936;50.524;8.684;2023-08-08T11:46:15;99177.41;;;19.13;62.22
41202;BME280;26936;50.524;8.684;2023-08-08T11:48:40;99193.28;;;19.31;62.15
41202;BME280;26936;50.524;8.684;2023-08-08T11:51:07;99172.19;;;19.01;62.85
41202;BME280;26936;50.524;8.684;2023-08-08T11:53:33;99164.41;;;19.12;63.09
41202;BME280;26936;50.524;8.684;2023-08-08T11:55:59;99171.97;;;19.21;64.54
41202;BME280;26936;50.524;8.684;2023-08-08T11:58:25;99169.94;;;19.43;62.30
41202;BME280;26936;50.524;8.684;2023-08-08T12:00:52;99178.75;;;19.29;63.41
41202;BME280;26936;50.524;8.684;2023-08-08T12:03:19;99165.25;;;19.68;62.14
41202;BME280;26936;50.524;8.684;2023-08-08T12:05:46;99176.69;;;19.68;63.07
41202;BME280;26936;50.524;8.684;2023-08-08T12:08:17;99168.38;;;19.64;61.83
41202;BME280;26936;50.524;8.684;2023-08-08T12:10:47;99165.53;;;19.64;61.33
41202;BME280;26936;50.524;8.684;2023-08-08T12:13:15;99168.06;;;20.29;61.76
41202;BME280;26936;50.524;8.684;2023-08-08T12:15:42;99163.69;;;19.94;60.69
41202;BME280;26936;50.524;8.684;2023-08-08T12:18:07;99183.97;;;19.80;60.36
41202;BME280;26936;50.524;8.684;2023-08-08T12:20:32;99183.22;;;19.74;58.64
41202;BME280;26936;50.524;8.684;2023-08-08T12:22:58;99182.66;;;19.86;61.07
41202;BME280;26936;50.524;8.684;2023-08-08T12:25:24;99180.59;;;19.48;59.06
41202;BME280;26936;50.524;8.684;2023-08-08T12:27:49;99170.97;;;19.51;60.21
41202;BME280;26936;50.524;8.684;2023-08-08T12:30:15;99185.53;;;19.53;58.95
41202;BME280;26936;50.524;8.684;2023-08-08T12:32:40;99168.41;;;19.59;58.84
41202;BME280;26936;50.524;8.684;2023-08-08T12:35:06;99171.75;;;19.35;60.33
41202;BME280;26936;50.524;8.684;2023-08-08T12:37:32;99161.84;;;19.25;60.15
41202;BME280;26936;50.524;8.684;2023-08-08T12:39:58;99173.56;;;19.38;61.22
41202;BME280;26936;50.524;8.684;2023-08-08T12:42:23;99178.78;;;19.45;61.25
41202;BME280;26936;50.524;8.684;2023-08-08T12:44:49;99176.94;;;19.31;59.91
41202;BME280;26936;50.524;8.684;2023-08-08T12:47:19;99165.97;;;19.19;60.63
41202;BME280;26936;50.524;8.684;2023-08-08T12:49:45;99174.03;;;19.15;62.16
41202;BME280;26936;50.524;8.684;2023-08-08T12:52:11;99174.31;;;19.17;62.25